createdAt,value
2017-10-19T00:00:22.736Z,100.20
2017-10-19T00:02:51.302Z,99.47
2017-10-19T00:05:19.148Z,97.50
2017-10-19T00:07:46.980Z,111.22
2017-10-19T00:10:14.747Z,118.25
2017-10-19T00:12:42.600Z,126.57
2017-10-19T00:15:10.446Z,111.00
2017-10-19T00:17:38.993Z,117.95
2017-10-19T00:20:06.856Z,110.15
2017-10-19T00:22:34.651Z,102.38
2017-10-19T00:25:03.207Z,95.80
2017-10-19T00:27:31.134Z,87.53
2017-10-19T00:29:58.921Z,99.35
2017-10-19T00:32:26.695Z,107.15
2017-10-19T00:34:54.552Z,110.20
2017-10-19T00:37:22.334Z,135.18
2017-10-19T00:39:50.925Z,150.35
2017-10-19T00:42:19.575Z,140.48
2017-10-19T00:44:47.400Z,116.22
2017-10-19T00:47:15.202Z,117.60
2017-10-19T00:49:43.044Z,99.93
2017-10-19T00:52:10.827Z,115.30
2017-10-19T00:54:38.647Z,110.63
2017-10-19T00:57:06.579Z,121.95
2017-10-19T00:59:35.153Z,108.22
2017-10-19T01:02:03.722Z,118.95
2017-10-19T01:04:31.595Z,123.60
2017-10-19T01:07:00.162Z,118.15
2017-10-19T01:09:27.965Z,127.87
2017-10-19T01:11:55.813Z,134.50
2017-10-19T01:14:24.375Z,137.10
2017-10-19T01:16:52.293Z,142.90
2017-10-19T01:19:20.188Z,147.87
2017-10-19T01:21:48.026Z,161.18
2017-10-19T01:24:15.905Z,150.90
2017-10-19T01:26:43.787Z,141.15
2017-10-19T01:29:11.603Z,135.75
2017-10-19T01:31:39.432Z,140.70
2017-10-19T01:34:07.298Z,149.20
2017-10-19T01:36:35.894Z,140.73
2017-10-19T01:39:04.136Z,143.48
2017-10-19T01:41:32.031Z,139.30
2017-10-19T01:44:00.625Z,133.05
2017-10-19T01:46:28.471Z,136.18
2017-10-19T01:48:57.179Z,137.32
2017-10-19T01:51:25.008Z,129.00
2017-10-19T01:53:53.571Z,146.27
2017-10-19T01:56:21.442Z,161.02
2017-10-19T01:58:49.241Z,148.70
2017-10-19T02:01:17.050Z,127.80
2017-10-19T02:03:44.947Z,136.57
2017-10-19T02:06:13.610Z,143.30
2017-10-19T02:08:41.469Z,152.27
2017-10-19T02:11:09.375Z,159.05
2017-10-19T02:13:37.225Z,209.25
2017-10-19T02:16:05.120Z,190.80
2017-10-19T02:18:33.325Z,248.30
2017-10-19T02:21:01.151Z,202.38
2017-10-19T02:23:28.981Z,214.73
2017-10-19T02:25:57.704Z,233.25
2017-10-19T02:28:25.617Z,261.92
2017-10-19T02:30:53.422Z,266.73
2017-10-19T02:33:21.328Z,175.30
2017-10-19T02:35:49.140Z,201.65
2017-10-19T02:38:16.989Z,221.98
2017-10-19T02:40:45.620Z,232.02
2017-10-19T02:43:14.293Z,254.70
2017-10-19T02:45:42.352Z,251.55
2017-10-19T02:48:10.261Z,197.05
2017-10-19T02:50:38.117Z,212.75
2017-10-19T02:53:05.933Z,304.45
2017-10-19T02:55:34.583Z,258.48
2017-10-19T02:58:02.405Z,294.40
2017-10-19T03:00:30.229Z,249.40
2017-10-19T03:02:58.868Z,305.87
2017-10-19T03:05:26.686Z,308.08
2017-10-19T03:07:54.518Z,332.17
2017-10-19T03:10:23.171Z,240.73
2017-10-19T03:12:51.789Z,189.32
2017-10-19T03:15:19.646Z,220.68
2017-10-19T03:17:47.700Z,253.07
2017-10-19T03:20:15.505Z,205.57
2017-10-19T03:22:43.329Z,195.68
2017-10-19T03:25:12.037Z,183.43
2017-10-19T03:27:40.610Z,173.43
2017-10-19T03:30:08.418Z,170.55
2017-10-19T03:32:36.313Z,168.70
2017-10-19T03:35:04.916Z,162.02
2017-10-19T03:37:32.726Z,196.50
2017-10-19T03:40:00.988Z,230.25
2017-10-19T03:42:28.823Z,269.23
2017-10-19T03:44:57.417Z,265.27
2017-10-19T03:47:26.216Z,354.23
2017-10-19T03:49:54.043Z,335.48
2017-10-19T03:52:21.868Z,349.60
2017-10-19T03:54:49.747Z,343.90
2017-10-19T03:57:17.561Z,307.75
2017-10-19T03:59:45.374Z,356.80
2017-10-19T04:02:13.274Z,313.73
2017-10-19T04:04:41.868Z,372.35
2017-10-19T04:07:10.005Z,521.97
2017-10-19T04:09:38.683Z,366.00
2017-10-19T04:12:07.303Z,302.95
2017-10-19T04:14:35.166Z,310.65
2017-10-19T04:17:03.107Z,400.38
2017-10-19T04:19:30.986Z,334.17
2017-10-19T04:21:58.844Z,299.73
2017-10-19T04:24:27.527Z,300.92
2017-10-19T04:26:56.157Z,413.92
2017-10-19T04:29:24.030Z,290.55
2017-10-19T04:31:51.960Z,366.88
2017-10-19T04:34:19.810Z,384.52
2017-10-19T04:36:48.435Z,326.83
2017-10-19T04:39:16.345Z,343.10
2017-10-19T04:41:44.979Z,380.73
2017-10-19T04:44:12.850Z,334.83
2017-10-19T04:46:40.793Z,291.30
2017-10-19T04:49:08.601Z,500.95
2017-10-19T04:51:36.388Z,339.48
2017-10-19T04:54:04.991Z,329.60
2017-10-19T04:56:32.822Z,329.27
2017-10-19T04:59:00.585Z,319.33
2017-10-19T05:01:28.423Z,358.58
2017-10-19T05:03:56.211Z,357.45
2017-10-19T05:06:24.004Z,425.02
2017-10-19T05:08:51.843Z,453.73
2017-10-19T05:11:20.412Z,428.52
2017-10-19T05:13:48.211Z,345.80
2017-10-19T05:16:16.067Z,363.02
2017-10-19T05:18:44.649Z,318.98
2017-10-19T05:21:13.488Z,410.95
2017-10-19T05:23:41.316Z,454.38
2017-10-19T05:26:09.113Z,433.62
2017-10-19T05:28:36.873Z,581.92
2017-10-19T05:31:04.750Z,441.33
2017-10-19T05:33:32.542Z,416.25
2017-10-19T05:36:01.096Z,435.30
2017-10-19T05:38:28.981Z,400.15
2017-10-19T05:40:57.540Z,461.35
2017-10-19T05:43:25.332Z,343.02
2017-10-19T05:45:53.944Z,480.40
2017-10-19T05:48:21.721Z,380.00
2017-10-19T05:50:49.505Z,346.65
2017-10-19T05:53:17.360Z,480.60
2017-10-19T05:55:45.171Z,425.40
2017-10-19T05:58:12.974Z,396.30
2017-10-19T06:00:40.853Z,341.45
2017-10-19T06:03:08.625Z,318.48
2017-10-19T06:05:36.397Z,357.30
2017-10-19T06:08:04.266Z,383.10
2017-10-19T06:10:32.051Z,296.52
2017-10-19T06:12:59.837Z,303.83
2017-10-19T06:15:27.677Z,244.68
2017-10-19T06:17:55.473Z,222.80
2017-10-19T06:20:23.243Z,205.15
2017-10-19T06:22:51.076Z,190.02
2017-10-19T06:25:18.853Z,191.90
2017-10-19T06:27:46.632Z,184.55
2017-10-19T06:30:14.477Z,202.32
2017-10-19T06:32:42.318Z,202.45
2017-10-19T06:35:10.086Z,194.13
2017-10-19T06:37:37.927Z,188.23
2017-10-19T06:40:06.460Z,169.07
2017-10-19T06:42:34.245Z,203.50
2017-10-19T06:45:02.367Z,198.15
2017-10-19T06:47:30.143Z,182.93
2017-10-19T06:49:57.924Z,170.95
2017-10-19T06:52:25.751Z,179.73
2017-10-19T06:54:53.543Z,212.65
2017-10-19T06:57:22.094Z,209.93
2017-10-19T06:59:49.944Z,176.80
2017-10-19T07:02:17.719Z,192.85
2017-10-19T07:04:45.494Z,191.15
2017-10-19T07:07:13.333Z,126.30
2017-10-19T07:09:41.115Z,140.55
2017-10-19T07:12:08.899Z,132.60
2017-10-19T07:14:36.746Z,130.70
2017-10-19T07:17:04.551Z,146.18
2017-10-19T07:19:32.326Z,125.60
2017-10-19T07:22:00.920Z,110.37
2017-10-19T07:24:29.453Z,120.78
2017-10-19T07:26:57.221Z,116.40
2017-10-19T07:29:25.052Z,104.90
2017-10-19T07:31:52.818Z,105.82
2017-10-19T07:34:20.609Z,114.60
2017-10-19T07:36:48.423Z,95.93
2017-10-19T07:39:16.199Z,122.25
2017-10-19T07:41:43.968Z,107.32
2017-10-19T07:44:11.799Z,99.53
2017-10-19T07:46:39.587Z,97.37
2017-10-19T07:49:07.370Z,101.90
2017-10-19T07:51:35.189Z,97.88
2017-10-19T07:54:03.734Z,90.75
2017-10-19T07:56:32.297Z,85.43
2017-10-19T07:59:00.124Z,91.20
2017-10-19T08:01:27.891Z,85.38
2017-10-19T08:03:55.659Z,91.25
2017-10-19T08:06:23.493Z,92.60
2017-10-19T08:08:52.055Z,81.70
2017-10-19T08:11:19.821Z,97.95
2017-10-19T08:13:47.643Z,89.57
2017-10-19T08:16:15.452Z,86.03
2017-10-19T08:18:43.972Z,86.72
2017-10-19T08:21:11.791Z,89.13
2017-10-19T08:23:40.322Z,96.63
2017-10-19T08:26:08.089Z,99.70
2017-10-19T08:28:35.910Z,100.95
2017-10-19T08:31:04.452Z,101.47
2017-10-19T08:33:32.228Z,106.53
2017-10-19T08:36:00.045Z,92.95
2017-10-19T08:38:27.805Z,93.72
2017-10-19T08:40:55.568Z,98.75
2017-10-19T08:43:23.390Z,89.47
2017-10-19T08:45:51.918Z,95.82
2017-10-19T08:48:19.699Z,99.85
2017-10-19T08:50:47.516Z,89.03
2017-10-19T08:53:15.289Z,106.50
2017-10-19T08:55:43.060Z,108.53
2017-10-19T08:58:10.908Z,90.97
2017-10-19T09:00:38.673Z,100.87
2017-10-19T09:03:06.467Z,108.82
2017-10-19T09:05:34.292Z,94.53
2017-10-19T09:08:02.066Z,105.37
2017-10-19T09:10:29.826Z,91.97
2017-10-19T09:12:57.665Z,92.75
2017-10-19T09:15:26.198Z,90.68
2017-10-19T09:17:53.959Z,101.25
2017-10-19T09:20:21.919Z,92.22
2017-10-19T09:22:49.681Z,99.70
2017-10-19T09:25:17.452Z,94.85
2017-10-19T09:27:45.287Z,85.45
2017-10-19T09:30:13.050Z,100.80
2017-10-19T09:32:40.815Z,89.85
2017-10-19T09:35:08.636Z,89.32
2017-10-19T09:37:37.164Z,85.75
2017-10-19T09:40:04.943Z,82.90
2017-10-19T09:42:32.776Z,86.90
2017-10-19T09:45:00.539Z,85.95
2017-10-19T09:47:28.312Z,100.85
2017-10-19T09:49:56.274Z,95.05
2017-10-19T09:52:24.045Z,104.03
2017-10-19T09:54:51.811Z,106.00
2017-10-19T09:57:19.663Z,102.87
2017-10-19T09:59:47.424Z,98.80
2017-10-19T10:02:15.196Z,99.20
2017-10-19T10:04:43.039Z,109.55
2017-10-19T10:07:10.803Z,104.63
2017-10-19T10:09:38.566Z,106.53
2017-10-19T10:12:06.386Z,99.68
2017-10-19T10:14:34.916Z,97.35
2017-10-19T10:17:02.680Z,87.32
2017-10-19T10:19:30.511Z,96.00
2017-10-19T10:21:59.066Z,90.20
2017-10-19T10:24:26.880Z,98.05
2017-10-19T10:26:54.710Z,82.40
2017-10-19T10:29:23.234Z,95.78
2017-10-19T10:31:51.028Z,90.95
2017-10-19T10:34:18.844Z,93.72
2017-10-19T10:36:46.620Z,107.32
2017-10-19T10:39:14.387Z,110.63
2017-10-19T10:41:42.234Z,95.50
2017-10-19T10:44:10.003Z,105.75
2017-10-19T10:46:37.775Z,99.78
2017-10-19T10:49:05.611Z,100.82
2017-10-19T10:51:33.409Z,98.28
2017-10-19T10:54:01.176Z,95.78
2017-10-19T10:56:29.072Z,99.13
2017-10-19T10:58:57.613Z,105.85
2017-10-19T11:01:25.397Z,114.43
2017-10-19T11:03:53.225Z,85.47
2017-10-19T11:06:20.993Z,90.03
2017-10-19T11:08:48.754Z,92.88
2017-10-19T11:11:16.588Z,95.35
2017-10-19T11:13:44.358Z,99.82
2017-10-19T11:16:12.114Z,108.35
2017-10-19T11:18:39.948Z,106.37
2017-10-19T11:21:08.488Z,99.00
2017-10-19T11:23:36.249Z,101.85
2017-10-19T11:26:04.074Z,98.72
2017-10-19T11:28:31.852Z,85.25
2017-10-19T11:30:59.622Z,104.85
2017-10-19T11:33:27.443Z,88.85
2017-10-19T11:35:55.980Z,101.28
2017-10-19T11:38:23.740Z,101.65
2017-10-19T11:40:51.560Z,95.22
2017-10-19T11:43:19.319Z,91.55
2017-10-19T11:45:47.089Z,96.82
2017-10-19T11:48:14.910Z,99.18
2017-10-19T11:50:42.670Z,91.10
2017-10-19T11:53:10.450Z,106.57
2017-10-19T11:55:39.048Z,92.35
2017-10-19T11:58:07.690Z,93.40
2017-10-19T12:00:35.467Z,94.93
2017-10-19T12:03:03.296Z,83.50
2017-10-19T12:05:31.052Z,89.10
2017-10-19T12:07:58.824Z,88.00
2017-10-19T12:10:27.405Z,84.65
2017-10-19T12:12:55.175Z,95.82
2017-10-19T12:15:22.937Z,83.12
2017-10-19T12:17:50.757Z,80.45
2017-10-19T12:20:18.522Z,90.43
2017-10-19T12:22:46.295Z,91.35
2017-10-19T12:25:14.105Z,98.50
2017-10-19T12:27:41.875Z,90.25
2017-10-19T12:30:10.410Z,95.80
2017-10-19T12:32:38.250Z,88.28
2017-10-19T12:35:06.039Z,92.25
2017-10-19T12:37:33.806Z,93.03
2017-10-19T12:40:01.637Z,89.75
2017-10-19T12:42:29.410Z,92.07
2017-10-19T12:44:57.176Z,83.72
2017-10-19T12:47:25.002Z,88.62
2017-10-19T12:49:53.522Z,86.00
2017-10-19T12:52:22.048Z,99.22
2017-10-19T12:54:49.862Z,83.82
2017-10-19T12:57:17.614Z,89.15
2017-10-19T12:59:45.366Z,81.72
2017-10-19T13:02:13.187Z,81.53
2017-10-19T13:04:40.958Z,85.85
2017-10-19T13:07:09.495Z,88.05
2017-10-19T13:09:37.349Z,88.50
2017-10-19T13:12:05.120Z,88.75
2017-10-19T13:14:32.878Z,83.37
2017-10-19T13:17:00.699Z,80.03
2017-10-19T13:19:29.229Z,72.18
2017-10-19T13:21:57.020Z,80.12
2017-10-19T13:24:24.841Z,76.45
2017-10-19T13:26:52.616Z,90.30
2017-10-19T13:29:20.396Z,76.72
2017-10-19T13:31:48.220Z,88.15
2017-10-19T13:34:15.981Z,77.97
2017-10-19T13:36:43.742Z,78.53
2017-10-19T13:39:11.566Z,68.68
2017-10-19T13:41:39.371Z,75.30
2017-10-19T13:44:07.130Z,64.70
2017-10-19T13:46:34.941Z,66.05
2017-10-19T13:49:02.716Z,72.45
2017-10-19T13:51:31.244Z,65.57
2017-10-19T13:53:59.072Z,66.10
2017-10-19T13:56:27.594Z,77.95
2017-10-19T13:58:55.369Z,80.38
2017-10-19T14:01:23.214Z,74.45
2017-10-19T14:03:50.973Z,78.68
2017-10-19T14:06:18.726Z,72.65
2017-10-19T14:08:46.559Z,80.05
2017-10-19T14:11:15.081Z,75.35
2017-10-19T14:13:42.846Z,68.10
2017-10-19T14:16:10.686Z,68.45
2017-10-19T14:18:38.446Z,70.28
2017-10-19T14:21:06.202Z,71.25
2017-10-19T14:23:34.019Z,74.18
2017-10-19T14:26:01.814Z,81.93
2017-10-19T14:28:30.361Z,79.75
2017-10-19T14:30:58.178Z,79.62
2017-10-19T14:33:25.939Z,86.25
2017-10-19T14:35:53.712Z,80.03
2017-10-19T14:38:21.551Z,86.45
2017-10-19T14:40:50.105Z,91.78
2017-10-19T14:43:18.643Z,79.43
2017-10-19T14:45:46.483Z,86.80
2017-10-19T14:48:14.275Z,96.32
2017-10-19T14:50:42.062Z,107.87
2017-10-19T14:53:09.889Z,120.05
2017-10-19T14:55:37.667Z,116.45
2017-10-19T14:58:05.440Z,110.82
2017-10-19T15:00:33.265Z,115.12
2017-10-19T15:03:02.198Z,109.40
2017-10-19T15:05:29.971Z,123.75
2017-10-19T15:07:57.814Z,113.95
2017-10-19T15:10:25.599Z,125.85
2017-10-19T15:12:54.154Z,131.82
2017-10-19T15:15:22.013Z,129.57
2017-10-19T15:17:49.777Z,130.80
2017-10-19T15:20:17.543Z,127.38
2017-10-19T15:22:45.380Z,132.60
2017-10-19T15:25:13.180Z,136.05
2017-10-19T15:27:40.943Z,136.25
2017-10-19T15:30:08.785Z,147.57
2017-10-19T15:32:36.553Z,149.73
2017-10-19T15:35:04.638Z,153.25
2017-10-19T15:37:32.567Z,151.05
2017-10-19T15:40:00.342Z,138.82
2017-10-19T15:42:28.103Z,166.15
2017-10-19T15:45:02.455Z,157.48
2017-10-19T15:47:30.984Z,161.70
2017-10-19T15:49:58.816Z,178.87
2017-10-19T15:52:27.380Z,163.52
2017-10-19T15:54:55.146Z,165.23
2017-10-19T15:57:23.754Z,170.68
2017-10-19T15:59:51.537Z,175.32
2017-10-19T16:02:19.300Z,179.05
2017-10-19T16:04:47.584Z,198.50
2017-10-19T16:07:16.085Z,202.90
2017-10-19T16:09:45.630Z,183.70
2017-10-19T16:12:15.275Z,195.40
2017-10-19T16:14:43.042Z,203.02
2017-10-19T16:17:10.811Z,212.88
2017-10-19T16:19:38.640Z,197.02
2017-10-19T16:22:06.411Z,204.93
2017-10-19T16:24:34.202Z,202.62
2017-10-19T16:27:02.199Z,201.93
2017-10-19T16:29:30.723Z,222.70
2017-10-19T16:31:58.514Z,213.85
2017-10-19T16:34:26.342Z,241.20
2017-10-19T16:36:54.098Z,250.98
2017-10-19T16:39:21.966Z,256.80
2017-10-19T16:41:49.791Z,246.45
2017-10-19T16:44:18.318Z,261.65
2017-10-19T16:46:46.076Z,226.73
2017-10-19T16:49:13.898Z,298.83
2017-10-19T16:51:42.445Z,260.38
2017-10-19T16:54:10.237Z,264.30
2017-10-19T16:56:38.847Z,287.42
2017-10-19T16:59:06.626Z,326.60
2017-10-19T17:01:34.410Z,424.70
2017-10-19T17:04:02.323Z,333.73
2017-10-19T17:06:30.171Z,312.23
2017-10-19T17:08:58.833Z,360.38
2017-10-19T17:11:26.831Z,413.00
2017-10-19T17:13:56.346Z,530.37
2017-10-19T17:16:24.114Z,553.17
2017-10-19T17:18:52.018Z,454.05
2017-10-19T17:21:19.940Z,583.78
2017-10-19T17:23:47.827Z,432.12
2017-10-19T17:26:15.701Z,616.80
2017-10-19T17:28:44.337Z,600.50
2017-10-19T17:31:12.153Z,575.20
2017-10-19T17:33:39.990Z,478.58
2017-10-19T17:36:07.825Z,455.52
2017-10-19T17:38:36.408Z,420.55
2017-10-19T17:41:05.037Z,392.73
2017-10-19T17:43:33.738Z,316.83
2017-10-19T17:46:01.730Z,410.58
2017-10-19T17:48:30.357Z,388.60
2017-10-19T17:50:58.177Z,407.12
2017-10-19T17:53:26.795Z,356.13
2017-10-19T17:55:54.699Z,460.98
2017-10-19T17:58:22.527Z,369.65
2017-10-19T18:00:50.535Z,413.92
2017-10-19T18:03:18.567Z,548.10
2017-10-19T18:05:46.383Z,433.02
2017-10-19T18:08:14.992Z,526.78
2017-10-19T18:10:43.112Z,461.35
2017-10-19T18:13:10.894Z,500.70
2017-10-19T18:15:39.434Z,550.90
2017-10-19T18:18:07.285Z,408.80
2017-10-19T18:20:35.073Z,543.63
2017-10-19T18:23:02.855Z,499.65
2017-10-19T18:25:31.459Z,413.30
2017-10-19T18:27:59.227Z,422.67
2017-10-19T18:30:26.999Z,493.90
2017-10-19T18:32:54.850Z,400.48
2017-10-19T18:35:22.665Z,395.58
2017-10-19T18:37:50.451Z,423.45
2017-10-19T18:40:19.150Z,540.97
2017-10-19T18:42:47.687Z,457.67
2017-10-19T18:45:15.468Z,465.02
2017-10-19T18:47:43.302Z,359.90
2017-10-19T18:50:11.843Z,459.13
2017-10-19T18:52:39.609Z,443.00
2017-10-19T18:55:07.446Z,393.10
2017-10-19T18:57:35.988Z,730.63
2017-10-19T19:00:03.766Z,526.63
2017-10-19T19:02:31.600Z,652.28
2017-10-19T19:05:00.144Z,601.10
2017-10-19T19:07:28.695Z,596.42
2017-10-19T19:09:56.517Z,618.10
2017-10-19T19:12:24.288Z,596.50
2017-10-19T19:14:52.074Z,612.78
2017-10-19T19:17:19.924Z,571.50
2017-10-19T19:19:47.704Z,582.25
2017-10-19T19:22:15.487Z,517.30
2017-10-19T19:24:44.090Z,627.35
2017-10-19T19:27:11.877Z,661.53
2017-10-19T19:29:39.696Z,452.88
2017-10-19T19:32:08.318Z,412.45
2017-10-19T19:34:36.111Z,608.03
2017-10-19T19:37:03.886Z,522.05
2017-10-19T19:39:31.738Z,464.08
2017-10-19T19:41:59.527Z,538.35
2017-10-19T19:44:27.365Z,579.72
2017-10-19T19:46:55.214Z,648.10
2017-10-19T19:49:23.006Z,479.25
2017-10-19T19:51:51.560Z,516.12
2017-10-19T19:54:19.405Z,533.38
2017-10-19T19:56:47.200Z,654.83
2017-10-19T19:59:14.988Z,519.53
2017-10-19T20:01:43.595Z,620.45
2017-10-19T20:04:11.362Z,567.03
2017-10-19T20:06:39.152Z,504.08
2017-10-19T20:09:06.995Z,589.78
2017-10-19T20:11:34.772Z,629.95
2017-10-19T20:14:02.628Z,676.47
2017-10-19T20:16:30.467Z,491.35
2017-10-19T20:18:58.265Z,680.47
2017-10-19T20:21:26.059Z,615.25
2017-10-19T20:23:54.669Z,601.15
2017-10-19T20:26:22.463Z,586.53
2017-10-19T20:28:50.246Z,542.67
2017-10-19T20:31:18.075Z,568.13
2017-10-19T20:33:45.855Z,499.80
2017-10-19T20:36:13.665Z,592.40
2017-10-19T20:38:41.527Z,450.35
2017-10-19T20:41:10.191Z,442.15
2017-10-19T20:43:38.749Z,489.35
2017-10-19T20:46:06.587Z,537.53
2017-10-19T20:48:34.485Z,490.85
2017-10-19T20:51:02.265Z,437.30
2017-10-19T20:53:30.099Z,465.38
2017-10-19T20:55:57.897Z,577.55
2017-10-19T20:58:26.458Z,464.70
2017-10-19T21:00:54.470Z,471.33
2017-10-19T21:03:22.326Z,532.40
2017-10-19T21:05:50.367Z,414.42
2017-10-19T21:08:19.024Z,465.85
2017-10-19T21:10:46.825Z,426.98
2017-10-19T21:13:15.468Z,507.77
2017-10-19T21:15:43.372Z,608.03
2017-10-19T21:18:11.935Z,501.37
2017-10-19T21:20:39.733Z,447.63
2017-10-19T21:23:07.628Z,532.88
2017-10-19T21:25:35.449Z,469.80
2017-10-19T21:28:03.593Z,510.15
2017-10-19T21:30:31.467Z,455.02
2017-10-19T21:33:00.035Z,513.80
2017-10-19T21:35:27.842Z,544.13
2017-10-19T21:37:55.733Z,516.42
2017-10-19T21:40:23.603Z,579.35
2017-10-19T21:42:51.429Z,481.08
2017-10-19T21:45:19.323Z,547.95
2017-10-19T21:47:47.138Z,795.30
2017-10-19T21:50:15.740Z,534.20
2017-10-19T21:52:43.613Z,492.87
2017-10-19T21:55:11.422Z,519.17
2017-10-19T21:57:39.294Z,437.95
2017-10-19T22:00:07.161Z,575.62
2017-10-19T22:02:34.982Z,532.35
2017-10-19T22:05:02.789Z,509.45
2017-10-19T22:07:31.487Z,487.20
2017-10-19T22:10:00.070Z,533.60
2017-10-19T22:12:28.674Z,589.17
2017-10-19T22:14:56.564Z,554.85
2017-10-19T22:17:24.421Z,508.23
2017-10-19T22:19:52.260Z,510.52
2017-10-19T22:22:20.188Z,534.90
2017-10-19T22:24:48.024Z,505.52
2017-10-19T22:27:15.836Z,534.92
2017-10-19T22:29:43.737Z,430.95
2017-10-19T22:32:11.581Z,514.03
2017-10-19T22:34:39.637Z,412.55
2017-10-19T22:37:07.520Z,536.47
2017-10-19T22:39:35.376Z,528.62
2017-10-19T22:42:03.187Z,514.28
2017-10-19T22:44:31.088Z,596.05
2017-10-19T22:47:02.697Z,446.23
